createdAt,value
2023-05-22T00:01:29.957Z,102474.15
2023-05-22T00:03:54.101Z,102477.89
2023-05-22T00:06:19.600Z,102473.05
2023-05-22T00:08:53.917Z,102473.33
2023-05-22T00:11:22.856Z,102469.36
2023-05-22T00:13:45.825Z,102466.27
2023-05-22T00:16:06.599Z,102466.43
2023-05-22T00:18:44.028Z,102459.89
2023-05-22T00:21:21.090Z,102460.55
2023-05-22T00:23:55.338Z,102459.42
2023-05-22T00:26:29.564Z,102451.99
2023-05-22T00:28:54.258Z,102451.17
2023-05-22T00:31:28.436Z,102451.05
2023-05-22T00:33:55.784Z,102448.64
2023-05-22T00:36:32.770Z,102448.68
2023-05-22T00:38:53.603Z,102452.73
2023-05-22T00:41:20.257Z,102456.63
2023-05-22T00:43:48.886Z,102454.69
2023-05-22T00:46:14.712Z,102460.34
2023-05-22T00:48:49.791Z,102460.96
2023-05-22T00:51:17.180Z,102460.71
2023-05-22T00:53:38.397Z,102454.31
2023-05-22T00:56:00.911Z,102453.36
2023-05-22T00:58:28.871Z,102457.45
2023-05-22T01:00:58.367Z,102453.33
2023-05-22T01:03:16.573Z,102451.42
2023-05-22T01:05:42.655Z,102445.20
2023-05-22T01:08:02.396Z,102441.96
2023-05-22T01:10:28.897Z,102441.19
2023-05-22T01:13:13.000Z,102437.52
2023-05-22T01:15:53.335Z,102432.98
2023-05-22T01:18:27.624Z,102433.78
2023-05-22T01:20:54.111Z,102431.20
2023-05-22T01:24:15.209Z,102433.08
2023-05-22T01:27:27.159Z,102432.00
2023-05-22T01:30:18.642Z,102434.25
2023-05-22T01:32:50.058Z,102434.90
2023-05-22T01:35:14.881Z,102431.37
2023-05-22T01:37:36.272Z,102432.10
2023-05-22T01:40:04.101Z,102430.45
2023-05-22T01:42:22.530Z,102430.99
2023-05-22T01:44:44.340Z,102431.89
2023-05-22T01:47:11.723Z,102433.94
2023-05-22T01:49:46.546Z,102436.56
2023-05-22T01:52:28.919Z,102433.17
2023-05-22T01:55:04.910Z,102433.01
2023-05-22T01:57:36.318Z,102426.42
2023-05-22T01:59:57.743Z,102425.00
2023-05-22T02:02:26.616Z,102423.81
2023-05-22T02:04:55.582Z,102422.47
2023-05-22T02:07:26.306Z,102420.27
2023-05-22T02:09:48.442Z,102418.36
2023-05-22T02:12:18.153Z,102418.45
2023-05-22T02:14:51.453Z,102411.61
2023-05-22T02:17:13.465Z,102410.02
2023-05-22T02:19:40.623Z,102408.59
2023-05-22T02:22:14.724Z,102405.63
2023-05-22T02:24:53.152Z,102408.59
2023-05-22T02:27:18.031Z,102404.36
2023-05-22T02:29:44.695Z,102409.73
2023-05-22T02:32:05.343Z,102412.76
2023-05-22T02:34:32.847Z,102416.55
2023-05-22T02:36:57.882Z,102415.11
2023-05-22T02:39:23.987Z,102416.16
2023-05-22T02:41:55.445Z,102418.65
2023-05-22T02:44:17.334Z,102415.59
2023-05-22T02:46:38.974Z,102411.66
2023-05-22T02:49:00.209Z,102411.21
2023-05-22T02:51:27.760Z,102410.05
2023-05-22T02:53:59.481Z,102407.58
2023-05-22T02:56:20.399Z,102405.65
2023-05-22T02:58:43.455Z,102406.19
2023-05-22T03:01:04.570Z,102404.95
2023-05-22T03:03:26.287Z,102409.92
2023-05-22T03:06:02.709Z,102413.00
2023-05-22T03:08:27.412Z,102415.32
2023-05-22T03:10:48.847Z,102415.87
2023-05-22T03:13:21.646Z,102417.55
2023-05-22T03:15:44.358Z,102415.80
2023-05-22T03:18:17.347Z,102414.23
2023-05-22T03:20:43.019Z,102410.70
2023-05-22T03:23:03.327Z,102414.27
2023-05-22T03:25:39.329Z,102411.48
2023-05-22T03:28:13.090Z,102410.77
2023-05-22T03:30:49.368Z,102411.58
2023-05-22T03:33:24.931Z,102409.27
2023-05-22T03:35:51.593Z,102407.23
2023-05-22T03:38:20.058Z,102408.02
2023-05-22T03:40:54.072Z,102407.11
2023-05-22T03:43:30.141Z,102406.63
2023-05-22T03:46:03.691Z,102408.01
2023-05-22T03:48:39.836Z,102407.49
2023-05-22T03:51:14.896Z,102410.94
2023-05-22T03:53:43.890Z,102415.90
2023-05-22T03:56:19.503Z,102416.77
2023-05-22T03:58:45.536Z,102419.09
2023-05-22T04:01:19.246Z,102421.34
2023-05-22T04:03:54.139Z,102421.05
2023-05-22T04:06:14.856Z,102427.58
2023-05-22T04:08:35.411Z,102432.23
2023-05-22T04:11:09.479Z,102433.73
2023-05-22T04:13:32.068Z,102436.05
2023-05-22T04:15:59.184Z,102439.27
2023-05-22T04:18:17.754Z,102440.94
2023-05-22T04:20:35.214Z,102444.70
2023-05-22T04:23:02.892Z,102440.48
2023-05-22T04:25:35.527Z,102438.06
2023-05-22T04:27:53.168Z,102436.95
2023-05-22T04:30:15.470Z,102438.56
2023-05-22T04:32:41.988Z,102441.80
2023-05-22T04:35:11.140Z,102448.69
2023-05-22T04:37:32.862Z,102451.36
2023-05-22T04:39:59.408Z,102450.23
2023-05-22T04:42:19.719Z,102448.70
2023-05-22T04:44:39.449Z,102450.05
2023-05-22T04:47:04.290Z,102450.86
2023-05-22T04:49:35.374Z,102454.06
2023-05-22T04:51:57.267Z,102454.69
2023-05-22T04:54:21.650Z,102452.61
2023-05-22T04:56:55.431Z,102454.01
2023-05-22T04:59:29.339Z,102455.09
2023-05-22T05:02:05.180Z,102456.73
2023-05-22T05:04:40.859Z,102450.54
2023-05-22T05:07:19.917Z,102451.64
2023-05-22T05:09:54.497Z,102453.34
2023-05-22T05:12:26.724Z,102452.23
2023-05-22T05:15:00.386Z,102452.16
2023-05-22T05:17:35.840Z,102458.58
2023-05-22T05:20:15.721Z,102457.06
2023-05-22T05:22:50.770Z,102460.27
2023-05-22T05:25:18.908Z,102459.75
2023-05-22T05:27:45.172Z,102460.11
2023-05-22T05:30:18.284Z,102461.92
2023-05-22T05:33:00.287Z,102462.66
2023-05-22T05:35:23.064Z,102464.59
2023-05-22T05:38:02.808Z,102464.61
2023-05-22T05:40:25.503Z,102467.77
2023-05-22T05:43:00.430Z,102468.73
2023-05-22T05:45:26.595Z,102466.75
2023-05-22T05:47:55.699Z,102466.34
2023-05-22T05:50:22.140Z,102463.96
2023-05-22T05:52:55.773Z,102459.81
2023-05-22T05:55:17.911Z,102461.92
2023-05-22T05:57:50.028Z,102463.90
2023-05-22T06:00:14.420Z,102461.45
2023-05-22T06:02:29.128Z,102455.88
2023-05-22T06:05:04.140Z,102455.38
2023-05-22T06:07:23.064Z,102460.35
2023-05-22T06:09:53.722Z,102460.45
2023-05-22T06:12:27.653Z,102461.86
2023-05-22T06:15:02.793Z,102460.81
2023-05-22T06:17:29.792Z,102460.64
2023-05-22T06:19:56.436Z,102457.84
2023-05-22T06:22:22.381Z,102459.89
2023-05-22T06:24:55.854Z,102460.65
2023-05-22T06:27:13.580Z,102462.48
2023-05-22T06:29:39.414Z,102464.44
2023-05-22T06:32:13.790Z,102463.62
2023-05-22T06:34:39.715Z,102460.27
2023-05-22T06:37:14.404Z,102460.17
2023-05-22T06:39:47.981Z,102461.20
2023-05-22T06:42:33.575Z,102461.09
2023-05-22T06:45:08.345Z,102458.11
2023-05-22T06:47:43.010Z,102454.12
2023-05-22T06:50:11.684Z,102457.27
2023-05-22T06:52:47.257Z,102454.05
2023-05-22T06:55:19.516Z,102453.01
2023-05-22T06:57:53.469Z,102458.15
2023-05-22T07:00:29.411Z,102460.07
2023-05-22T07:02:52.646Z,102461.19
2023-05-22T07:05:14.347Z,102463.48
2023-05-22T07:07:49.062Z,102463.47
2023-05-22T07:10:09.563Z,102463.99
2023-05-22T07:12:33.205Z,102465.51
2023-05-22T07:15:19.207Z,102464.24
2023-05-22T07:17:53.660Z,102464.27
2023-05-22T07:20:26.796Z,102466.54
2023-05-22T07:23:01.586Z,102466.35
2023-05-22T07:25:22.811Z,102466.22
2023-05-22T07:27:55.131Z,102469.72
2023-05-22T07:30:20.539Z,102466.07
2023-05-22T07:32:47.595Z,102469.38
2023-05-22T07:35:13.864Z,102467.10
2023-05-22T07:37:39.899Z,102462.42
2023-05-22T07:40:00.944Z,102453.71
2023-05-22T07:42:36.153Z,102447.35
2023-05-22T07:45:13.386Z,102446.05
2023-05-22T07:47:47.108Z,102445.86
2023-05-22T07:50:15.018Z,102444.80
2023-05-22T07:52:39.888Z,102443.30
2023-05-22T07:54:59.699Z,102441.93
2023-05-22T07:57:17.779Z,102441.34
2023-05-22T07:59:46.534Z,102443.22
2023-05-22T08:02:21.725Z,102442.23
2023-05-22T08:04:47.552Z,102447.40
2023-05-22T08:07:22.374Z,102444.48
2023-05-22T08:09:56.914Z,102445.20
2023-05-22T08:12:18.534Z,102443.94
2023-05-22T08:14:46.940Z,102444.27
2023-05-22T08:17:05.517Z,102446.82
2023-05-22T08:19:26.009Z,102448.42
2023-05-22T08:21:59.184Z,102446.48
2023-05-22T08:24:29.534Z,102446.89
2023-05-22T08:26:53.954Z,102444.84
2023-05-22T08:29:28.285Z,102443.94
2023-05-22T08:31:49.654Z,102446.79
2023-05-22T08:34:18.911Z,102449.30
2023-05-22T08:36:43.644Z,102445.33
2023-05-22T08:39:04.829Z,102443.30
2023-05-22T08:41:30.503Z,102446.35
2023-05-22T08:44:04.140Z,102443.89
2023-05-22T08:46:39.139Z,102443.10
2023-05-22T08:49:08.380Z,102447.56
2023-05-22T08:51:45.444Z,102448.10
2023-05-22T08:54:22.204Z,102452.38
2023-05-22T08:56:55.771Z,102452.13
2023-05-22T08:59:26.345Z,102449.02
2023-05-22T09:01:59.191Z,102447.32
2023-05-22T09:04:19.717Z,102449.20
2023-05-22T09:06:53.655Z,102447.90
2023-05-22T09:09:20.937Z,102443.89
2023-05-22T09:11:43.327Z,102442.52
2023-05-22T09:14:13.478Z,102445.35
2023-05-22T09:16:56.134Z,102440.04
2023-05-22T09:19:20.212Z,102442.31
2023-05-22T09:21:54.523Z,102446.11
2023-05-22T09:24:21.641Z,102443.20
2023-05-22T09:26:55.848Z,102442.02
2023-05-22T09:29:31.361Z,102444.33
2023-05-22T09:32:05.869Z,102444.12
2023-05-22T09:34:40.299Z,102442.52
2023-05-22T09:37:14.903Z,102438.63
2023-05-22T09:39:46.206Z,102432.95
2023-05-22T09:42:11.301Z,102429.83
2023-05-22T09:44:45.931Z,102430.42
2023-05-22T09:47:07.984Z,102425.33
2023-05-22T09:49:48.300Z,102423.01
2023-05-22T09:52:16.290Z,102424.57
2023-05-22T09:54:38.389Z,102426.48
2023-05-22T09:57:10.135Z,102424.49
2023-05-22T09:59:37.803Z,102423.51
2023-05-22T10:02:00.334Z,102420.66
2023-05-22T10:04:29.313Z,102417.61
2023-05-22T10:06:55.317Z,102421.61
2023-05-22T10:09:35.658Z,102421.06
2023-05-22T10:12:17.465Z,102422.05
2023-05-22T10:14:53.332Z,102420.70
2023-05-22T10:17:29.880Z,102422.83
2023-05-22T10:20:01.125Z,102421.51
2023-05-22T10:22:23.807Z,102420.46
2023-05-22T10:24:59.036Z,102420.98
2023-05-22T10:27:19.796Z,102425.67
2023-05-22T10:29:46.552Z,102423.34
2023-05-22T10:32:29.289Z,102425.23
2023-05-22T10:35:13.915Z,102424.38
2023-05-22T10:37:50.908Z,102425.08
2023-05-22T10:40:22.266Z,102425.71
2023-05-22T10:42:46.572Z,102424.25
2023-05-22T10:45:20.506Z,102426.73
2023-05-22T10:47:43.995Z,102422.79
2023-05-22T10:50:17.630Z,102416.86
2023-05-22T10:52:38.928Z,102416.08
2023-05-22T10:55:03.803Z,102409.83
2023-05-22T10:57:31.004Z,102412.48
2023-05-22T11:00:10.195Z,102416.00
2023-05-22T11:02:40.090Z,102418.45
2023-05-22T11:05:39.740Z,102418.55
2023-05-22T11:08:38.134Z,102427.66
2023-05-22T11:11:17.505Z,102427.67
2023-05-22T11:13:45.053Z,102432.27
2023-05-22T11:16:11.778Z,102430.02
2023-05-22T11:18:38.184Z,102431.89
2023-05-22T11:21:07.275Z,102429.88
2023-05-22T11:23:36.816Z,102426.34
2023-05-22T11:26:27.242Z,102426.75
2023-05-22T11:28:58.919Z,102430.30
2023-05-22T11:31:24.383Z,102423.11
2023-05-22T11:33:52.897Z,102421.29
2023-05-22T11:36:19.906Z,102419.95
2023-05-22T11:38:49.016Z,102421.61
2023-05-22T11:41:18.823Z,102415.90
2023-05-22T11:43:39.538Z,102414.17
2023-05-22T11:46:08.671Z,102413.24
2023-05-22T11:48:35.349Z,102412.14
2023-05-22T11:50:56.813Z,102412.58
2023-05-22T11:53:29.640Z,102411.51
2023-05-22T11:55:57.513Z,102415.61
2023-05-22T11:58:23.855Z,102412.02
2023-05-22T12:00:52.275Z,102406.33
2023-05-22T12:03:21.734Z,102405.36
2023-05-22T12:05:42.017Z,102402.11
2023-05-22T12:07:58.353Z,102399.91
2023-05-22T12:10:21.408Z,102403.05
2023-05-22T12:12:46.949Z,102400.35
2023-05-22T12:15:22.088Z,102403.19
2023-05-22T12:17:57.912Z,102408.42
2023-05-22T12:20:18.849Z,102406.83
2023-05-22T12:22:53.256Z,102401.60
2023-05-22T12:25:27.902Z,102397.63
2023-05-22T12:27:58.497Z,102396.30
2023-05-22T12:30:42.748Z,102392.16
2023-05-22T12:33:23.489Z,102390.60
2023-05-22T12:35:53.259Z,102386.67
2023-05-22T12:38:32.527Z,102383.80
2023-05-22T12:40:59.491Z,102384.77
2023-05-22T12:43:32.541Z,102379.36
2023-05-22T12:45:55.287Z,102372.52
2023-05-22T12:48:30.564Z,102367.83
2023-05-22T12:51:02.517Z,102371.43
2023-05-22T12:53:32.714Z,102369.20
2023-05-22T12:56:07.140Z,102368.42
2023-05-22T12:58:27.170Z,102371.14
2023-05-22T13:00:50.219Z,102372.55
2023-05-22T13:03:25.538Z,102371.23
2023-05-22T13:06:00.737Z,102371.77
2023-05-22T13:08:21.452Z,102373.17
2023-05-22T13:10:42.429Z,102369.63
2023-05-22T13:13:08.734Z,102368.04
2023-05-22T13:15:33.707Z,102370.84
2023-05-22T13:18:08.663Z,102367.26
2023-05-22T13:20:39.276Z,102373.23
2023-05-22T13:23:14.135Z,102372.63
2023-05-22T13:25:41.611Z,102378.96
2023-05-22T13:28:09.376Z,102377.61
2023-05-22T13:30:33.373Z,102380.30
2023-05-22T13:32:54.809Z,102380.69
2023-05-22T13:35:22.003Z,102380.63
2023-05-22T13:37:48.478Z,102381.71
2023-05-22T13:40:09.454Z,102380.88
2023-05-22T13:42:27.630Z,102379.02
2023-05-22T13:44:48.121Z,102378.58
2023-05-22T13:47:08.764Z,102381.30
2023-05-22T13:49:43.524Z,102382.61
2023-05-22T13:52:05.102Z,102383.36
2023-05-22T13:54:24.017Z,102383.21
2023-05-22T13:56:51.204Z,102382.95
2023-05-22T13:59:11.663Z,102383.53
2023-05-22T14:01:45.814Z,102385.14
2023-05-22T14:04:16.152Z,102384.48
2023-05-22T14:06:42.085Z,102380.12
2023-05-22T14:09:12.825Z,102381.98
2023-05-22T14:11:33.141Z,102379.19
2023-05-22T14:13:53.262Z,102376.77
2023-05-22T14:16:16.845Z,102373.89
2023-05-22T14:18:50.743Z,102371.77
2023-05-22T14:21:17.139Z,102377.49
2023-05-22T14:23:44.478Z,102377.69
2023-05-22T14:26:19.169Z,102379.54
2023-05-22T14:28:44.917Z,102378.47
2023-05-22T14:31:05.388Z,102378.44
2023-05-22T14:33:41.165Z,102374.90
2023-05-22T14:36:15.349Z,102370.48
2023-05-22T14:38:34.968Z,102377.59
2023-05-22T14:41:00.834Z,102380.98
2023-05-22T14:43:35.073Z,102379.27
2023-05-22T14:46:11.510Z,102383.45
2023-05-22T14:48:32.364Z,102385.20
2023-05-22T14:50:54.753Z,102385.74
2023-05-22T14:53:14.926Z,102383.52
2023-05-22T14:55:49.416Z,102385.48
2023-05-22T14:58:09.781Z,102383.62
2023-05-22T15:00:37.522Z,102386.58
2023-05-22T15:03:04.459Z,102391.14
2023-05-22T15:05:33.880Z,102392.83
2023-05-22T15:08:01.411Z,102388.95
2023-05-22T15:10:20.722Z,102389.92
2023-05-22T15:12:54.506Z,102390.61
2023-05-22T15:15:16.841Z,102394.98
2023-05-22T15:17:44.788Z,102392.96
2023-05-22T15:20:11.040Z,102390.19
2023-05-22T15:22:46.471Z,102391.95
2023-05-22T15:25:20.700Z,102389.91
2023-05-22T15:27:48.209Z,102385.95
2023-05-22T15:30:22.232Z,102389.35
2023-05-22T15:32:42.586Z,102389.73
2023-05-22T15:35:18.213Z,102393.58
2023-05-22T15:37:45.979Z,102390.38
2023-05-22T15:40:23.619Z,102386.70
2023-05-22T15:42:55.119Z,102389.59
2023-05-22T15:45:22.140Z,102390.39
2023-05-22T15:47:48.818Z,102389.36
2023-05-22T15:50:18.252Z,102390.89
2023-05-22T15:52:44.649Z,102389.30
2023-05-22T15:55:19.921Z,102389.12
2023-05-22T15:57:54.654Z,102392.86
2023-05-22T16:00:18.582Z,102389.73
2023-05-22T16:02:47.413Z,102390.36
2023-05-22T16:05:05.701Z,102389.34
2023-05-22T16:07:31.455Z,102388.27
2023-05-22T16:09:57.563Z,102389.08
2023-05-22T16:12:22.966Z,102390.23
2023-05-22T16:15:00.501Z,102389.59
2023-05-22T16:17:20.138Z,102392.60
2023-05-22T16:19:47.520Z,102397.31
2023-05-22T16:22:06.587Z,102399.39
2023-05-22T16:24:31.603Z,102397.77
2023-05-22T16:26:51.841Z,102398.54
2023-05-22T16:29:21.601Z,102397.69
2023-05-22T16:31:43.088Z,102397.10
2023-05-22T16:34:08.399Z,102394.41
2023-05-22T16:36:34.458Z,102395.83
2023-05-22T16:39:09.119Z,102397.52
2023-05-22T16:41:46.221Z,102397.58
2023-05-22T16:44:15.408Z,102396.45
2023-05-22T16:46:36.273Z,102395.29
2023-05-22T16:49:05.222Z,102393.27
2023-05-22T16:51:30.541Z,102393.88
2023-05-22T16:53:58.152Z,102388.10
2023-05-22T16:56:27.241Z,102385.36
2023-05-22T16:58:59.456Z,102382.48
2023-05-22T17:01:34.676Z,102383.08
2023-05-22T17:03:57.517Z,102387.88
2023-05-22T17:06:18.303Z,102386.02
2023-05-22T17:08:40.380Z,102388.25
2023-05-22T17:11:02.993Z,102387.04
2023-05-22T17:13:34.443Z,102386.79
2023-05-22T17:16:09.314Z,102387.78
2023-05-22T17:18:38.820Z,102386.73
2023-05-22T17:21:05.497Z,102387.02
2023-05-22T17:23:40.077Z,102388.72
2023-05-22T17:26:05.989Z,102390.55
2023-05-22T17:28:27.179Z,102389.73
2023-05-22T17:31:02.774Z,102391.17
2023-05-22T17:33:34.872Z,102387.22
2023-05-22T17:36:10.863Z,102386.89
2023-05-22T17:38:42.512Z,102388.56
2023-05-22T17:41:08.971Z,102391.64
2023-05-22T17:43:43.311Z,102392.73
2023-05-22T17:46:03.900Z,102391.60
2023-05-22T17:48:42.029Z,102393.81
2023-05-22T17:51:08.497Z,102392.70
2023-05-22T17:53:37.805Z,102398.10
2023-05-22T17:56:15.125Z,102396.86
2023-05-22T17:58:35.005Z,102394.73
2023-05-22T18:00:57.008Z,102395.73
2023-05-22T18:03:16.951Z,102401.46
2023-05-22T18:05:44.612Z,102402.33
2023-05-22T18:08:06.108Z,102402.29
2023-05-22T18:10:30.681Z,102403.92
2023-05-22T18:13:03.948Z,102402.52
2023-05-22T18:15:31.573Z,102405.38
2023-05-22T18:17:49.022Z,102406.08
2023-05-22T18:20:23.364Z,102406.61
2023-05-22T18:22:52.260Z,102408.89
2023-05-22T18:25:27.436Z,102411.48
2023-05-22T18:27:56.648Z,102416.39
2023-05-22T18:30:26.709Z,102418.81
2023-05-22T18:32:48.306Z,102424.04
2023-05-22T18:35:08.773Z,102421.84
2023-05-22T18:37:28.934Z,102419.53
2023-05-22T18:39:53.177Z,102417.87
2023-05-22T18:42:21.252Z,102420.05
2023-05-22T18:44:55.881Z,102414.74
2023-05-22T18:47:13.409Z,102418.98
2023-05-22T18:49:40.345Z,102420.98
2023-05-22T18:52:14.529Z,102422.70
2023-05-22T18:54:50.682Z,102423.39
2023-05-22T18:57:25.263Z,102421.90
2023-05-22T18:59:47.264Z,102419.80
2023-05-22T19:02:14.473Z,102423.65
2023-05-22T19:04:40.070Z,102424.91
2023-05-22T19:07:00.261Z,102428.17
2023-05-22T19:09:34.739Z,102426.96
2023-05-22T19:11:54.894Z,102424.47
2023-05-22T19:14:15.979Z,102425.39
2023-05-22T19:16:36.379Z,102422.30
2023-05-22T19:19:12.481Z,102420.37
2023-05-22T19:21:48.350Z,102426.90
2023-05-22T19:24:07.872Z,102430.95
2023-05-22T19:26:33.957Z,102429.23
2023-05-22T19:28:54.611Z,102429.75
2023-05-22T19:31:14.132Z,102428.59
2023-05-22T19:33:34.862Z,102430.68
2023-05-22T19:36:08.771Z,102430.44
2023-05-22T19:38:34.115Z,102432.77
2023-05-22T19:40:54.464Z,102434.05
2023-05-22T19:43:32.354Z,102434.05
2023-05-22T19:45:59.342Z,102442.86
2023-05-22T19:48:23.123Z,102438.25
2023-05-22T19:51:00.268Z,102439.11
2023-05-22T19:53:36.132Z,102439.86
2023-05-22T19:56:03.590Z,102441.61
2023-05-22T19:58:34.575Z,102442.84
2023-05-22T20:01:04.445Z,102444.20
2023-05-22T20:03:33.206Z,102450.47
2023-05-22T20:05:58.044Z,102448.42
2023-05-22T20:08:33.006Z,102450.02
2023-05-22T20:10:55.177Z,102452.17
2023-05-22T20:13:29.999Z,102450.81
2023-05-22T20:16:05.316Z,102450.65
2023-05-22T20:18:39.974Z,102453.95
2023-05-22T20:21:14.250Z,102449.64
2023-05-22T20:23:51.080Z,102447.95
2023-05-22T20:26:25.658Z,102450.83
2023-05-22T20:28:53.976Z,102447.86
2023-05-22T20:31:21.220Z,102448.21
2023-05-22T20:33:54.480Z,102448.13
2023-05-22T20:36:22.322Z,102449.98
2023-05-22T20:38:49.588Z,102452.88
2023-05-22T20:41:24.013Z,102450.50
2023-05-22T20:43:59.739Z,102454.74
2023-05-22T20:46:34.091Z,102461.06
2023-05-22T20:49:07.536Z,102460.63
2023-05-22T20:51:42.258Z,102455.73
2023-05-22T20:54:09.251Z,102451.56
2023-05-22T20:56:43.640Z,102449.44
2023-05-22T20:59:17.306Z,102454.63
2023-05-22T21:01:51.930Z,102454.84
2023-05-22T21:04:25.071Z,102452.91
2023-05-22T21:06:58.518Z,102456.42
2023-05-22T21:09:25.268Z,102461.72
2023-05-22T21:11:58.698Z,102455.86
2023-05-22T21:14:33.012Z,102454.90
2023-05-22T21:16:58.912Z,102450.93
2023-05-22T21:19:21.748Z,102452.71
2023-05-22T21:21:46.350Z,102451.77
2023-05-22T21:24:20.848Z,102451.98
2023-05-22T21:26:50.520Z,102455.31
2023-05-22T21:29:24.932Z,102455.88
2023-05-22T21:31:46.900Z,102453.52
2023-05-22T21:34:15.430Z,102449.21
2023-05-22T21:36:47.506Z,102448.98
2023-05-22T21:39:11.420Z,102455.48
2023-05-22T21:41:39.225Z,102459.15
2023-05-22T21:44:04.492Z,102457.51
2023-05-22T21:46:31.909Z,102456.98
2023-05-22T21:48:58.431Z,102459.66
2023-05-22T21:51:33.777Z,102459.05
2023-05-22T21:54:00.168Z,102457.66
2023-05-22T21:56:25.816Z,102462.71
2023-05-22T21:58:59.156Z,102462.24
2023-05-22T22:01:20.422Z,102463.51
2023-05-22T22:03:46.393Z,102463.84
2023-05-22T22:06:13.230Z,102464.41
2023-05-22T22:08:33.746Z,102467.59
2023-05-22T22:11:00.437Z,102463.59
2023-05-22T22:13:27.622Z,102462.09
2023-05-22T22:15:56.470Z,102460.80
2023-05-22T22:18:17.685Z,102461.16
2023-05-22T22:20:45.616Z,102458.23
2023-05-22T22:23:11.939Z,102461.62
2023-05-22T22:25:45.220Z,102459.86
2023-05-22T22:28:21.070Z,102459.39
2023-05-22T22:30:45.678Z,102459.69
2023-05-22T22:33:20.906Z,102460.83
2023-05-22T22:35:41.628Z,102457.79
2023-05-22T22:38:12.359Z,102461.67
2023-05-22T22:40:44.465Z,102457.19
2023-05-22T22:43:08.338Z,102455.30
2023-05-22T22:45:43.282Z,102454.17
2023-05-22T22:48:19.832Z,102449.69
2023-05-22T22:50:43.397Z,102448.48
2023-05-22T22:53:14.057Z,102442.48
2023-05-22T22:55:33.742Z,102442.58
2023-05-22T22:58:03.091Z,102439.81
2023-05-22T23:00:35.298Z,102439.27
2023-05-22T23:03:08.232Z,102441.93
2023-05-22T23:05:33.494Z,102438.45
2023-05-22T23:08:02.984Z,102433.50
2023-05-22T23:10:30.573Z,102433.29
2023-05-22T23:13:05.130Z,102435.19
2023-05-22T23:15:31.071Z,102439.27
2023-05-22T23:18:04.013Z,102438.59
2023-05-22T23:20:23.443Z,102437.42
2023-05-22T23:22:57.053Z,102437.07
2023-05-22T23:25:31.383Z,102433.34
2023-05-22T23:27:57.635Z,102433.22
2023-05-22T23:30:27.792Z,102430.54
2023-05-22T23:33:00.824Z,102431.75
2023-05-22T23:35:34.546Z,102431.06
2023-05-22T23:37:57.732Z,102425.98
2023-05-22T23:40:24.324Z,102431.91
2023-05-22T23:42:43.989Z,102429.33
2023-05-22T23:45:18.191Z,102429.70
2023-05-22T23:47:35.090Z,102426.73
2023-05-22T23:50:09.981Z,102423.59
2023-05-22T23:52:38.763Z,102422.36
2023-05-22T23:55:12.260Z,102421.40
2023-05-22T23:57:37.339Z,102420.48
